createdAt,value
2023-01-17T00:02:16.554Z,6.37
2023-01-17T00:05:03.059Z,7.03
2023-01-17T00:07:49.024Z,5.30
2023-01-17T00:10:19.383Z,9.03
2023-01-17T00:12:48.603Z,7.20
2023-01-17T00:15:19.983Z,9.37
2023-01-17T00:17:48.914Z,12.80
2023-01-17T00:20:36.533Z,5.40
2023-01-17T00:23:25.182Z,6.57
2023-01-17T00:26:06.199Z,5.03
2023-01-17T00:28:35.496Z,7.87
2023-01-17T00:31:05.159Z,7.03
2023-01-17T00:33:32.678Z,6.17
2023-01-17T00:36:01.120Z,8.40
2023-01-17T00:38:29.684Z,10.27
2023-01-17T00:41:03.204Z,10.27
2023-01-17T00:43:52.070Z,8.67
2023-01-17T00:46:39.786Z,5.53
2023-01-17T00:49:26.316Z,8.93
2023-01-17T00:52:12.719Z,8.90
2023-01-17T00:54:58.121Z,8.47
2023-01-17T00:57:44.151Z,7.60
2023-01-17T01:00:31.066Z,7.00
2023-01-17T01:03:18.488Z,11.77
2023-01-17T01:06:04.032Z,8.83
2023-01-17T01:08:50.007Z,5.47
2023-01-17T01:11:37.951Z,10.60
2023-01-17T01:14:24.889Z,10.80
2023-01-17T01:17:10.585Z,5.93
2023-01-17T01:19:57.848Z,13.67
2023-01-17T01:22:43.636Z,11.10
2023-01-17T01:25:29.673Z,7.70
2023-01-17T01:28:22.403Z,10.50
2023-01-17T01:31:08.216Z,6.27
2023-01-17T01:33:41.463Z,6.53
2023-01-17T01:36:11.551Z,11.30
2023-01-17T01:38:40.205Z,6.10
2023-01-17T01:41:08.441Z,10.20
2023-01-17T01:43:44.409Z,10.20
2023-01-17T01:46:15.749Z,6.40
2023-01-17T01:48:49.788Z,10.93
2023-01-17T01:51:23.438Z,8.27
2023-01-17T01:53:59.816Z,13.37
2023-01-17T01:56:32.000Z,5.43
2023-01-17T01:59:01.743Z,7.13
2023-01-17T02:01:31.905Z,9.20
2023-01-17T02:04:00.535Z,7.97
2023-01-17T02:06:34.783Z,12.77
2023-01-17T02:09:06.857Z,11.90
2023-01-17T02:11:37.313Z,12.47
2023-01-17T02:14:05.584Z,10.07
2023-01-17T02:16:44.554Z,13.70
2023-01-17T02:19:35.650Z,10.40
2023-01-17T02:22:31.413Z,8.83
2023-01-17T02:25:15.895Z,5.17
2023-01-17T02:27:59.507Z,13.63
2023-01-17T02:30:49.331Z,10.03
2023-01-17T02:33:25.795Z,15.27
2023-01-17T02:36:05.241Z,9.10
2023-01-17T02:38:41.286Z,13.47
2023-01-17T02:41:14.602Z,9.17
2023-01-17T02:43:43.356Z,7.00
2023-01-17T02:46:13.086Z,9.70
2023-01-17T02:48:42.032Z,9.70
2023-01-17T02:51:40.407Z,8.03
2023-01-17T02:54:24.969Z,13.50
2023-01-17T02:57:07.390Z,11.03
2023-01-17T02:59:47.217Z,6.67
2023-01-17T03:02:28.409Z,6.83
2023-01-17T03:05:02.811Z,8.30
2023-01-17T03:07:35.734Z,13.17
2023-01-17T03:10:06.783Z,15.17
2023-01-17T03:12:38.577Z,11.30
2023-01-17T03:15:12.235Z,9.50
2023-01-17T03:17:46.197Z,8.27
2023-01-17T03:20:14.434Z,7.50
2023-01-17T03:22:42.846Z,8.33
2023-01-17T03:25:11.768Z,7.50
2023-01-17T03:27:42.112Z,9.83
2023-01-17T03:30:11.733Z,6.67
2023-01-17T03:32:41.710Z,10.97
2023-01-17T03:35:10.586Z,8.10
2023-01-17T03:37:39.142Z,6.53
2023-01-17T03:40:08.635Z,9.67
2023-01-17T03:42:36.989Z,6.97
2023-01-17T03:45:06.038Z,9.07
2023-01-17T03:47:36.340Z,12.73
2023-01-17T03:50:06.943Z,13.73
2023-01-17T03:52:35.252Z,13.00
2023-01-17T03:55:03.730Z,15.00
2023-01-17T03:57:32.287Z,14.53
2023-01-17T04:00:00.525Z,14.97
2023-01-17T04:02:28.758Z,10.00
2023-01-17T04:04:57.091Z,10.20
2023-01-17T04:07:26.703Z,12.27
2023-01-17T04:09:55.240Z,12.17
2023-01-17T04:12:23.722Z,15.00
2023-01-17T04:14:52.083Z,11.93
2023-01-17T04:17:21.141Z,11.00
2023-01-17T04:19:49.800Z,13.67
2023-01-17T04:22:18.117Z,11.00
2023-01-17T04:24:47.674Z,15.67
2023-01-17T04:27:16.054Z,13.60
2023-01-17T04:29:47.095Z,13.60
2023-01-17T04:32:15.913Z,14.68
2023-01-17T04:34:46.650Z,11.07
2023-01-17T04:37:14.909Z,11.73
2023-01-17T04:39:43.207Z,11.03
2023-01-17T04:42:13.069Z,17.53
2023-01-17T04:44:41.344Z,15.00
2023-01-17T04:47:10.206Z,15.50
2023-01-17T04:49:38.771Z,19.63
2023-01-17T04:52:07.110Z,17.73
2023-01-17T04:54:35.409Z,16.20
2023-01-17T04:57:03.662Z,16.33
2023-01-17T04:59:33.201Z,13.97
2023-01-17T05:02:01.674Z,19.33
2023-01-17T05:04:31.331Z,10.43
2023-01-17T05:06:59.867Z,15.87
2023-01-17T05:09:28.149Z,21.93
2023-01-17T05:11:56.779Z,23.77
2023-01-17T05:14:26.311Z,15.47
2023-01-17T05:16:56.802Z,16.40
2023-01-17T05:19:26.009Z,15.63
2023-01-17T05:21:54.689Z,14.97
2023-01-17T05:24:23.020Z,15.67
2023-01-17T05:26:54.732Z,14.97
2023-01-17T05:29:23.817Z,13.07
2023-01-17T05:31:52.130Z,15.37
2023-01-17T05:34:21.895Z,14.60
2023-01-17T05:36:50.333Z,10.50
2023-01-17T05:39:18.715Z,17.10
2023-01-17T05:41:46.929Z,19.13
2023-01-17T05:44:15.510Z,16.60
2023-01-17T05:46:44.560Z,18.63
2023-01-17T05:49:12.737Z,17.27
2023-01-17T05:51:42.472Z,18.00
2023-01-17T05:54:10.838Z,16.20
2023-01-17T05:56:39.048Z,14.10
2023-01-17T05:59:07.480Z,18.03
2023-01-17T06:01:35.797Z,17.10
2023-01-17T06:04:03.967Z,17.13
2023-01-17T06:06:32.168Z,17.77
2023-01-17T06:09:01.912Z,18.13
2023-01-17T06:11:32.954Z,21.80
2023-01-17T06:14:01.387Z,26.23
2023-01-17T06:16:30.704Z,16.20
2023-01-17T06:18:58.912Z,19.07
2023-01-17T06:21:27.162Z,20.03
2023-01-17T06:23:56.635Z,15.93
2023-01-17T06:26:26.331Z,17.60
2023-01-17T06:28:54.959Z,20.00
2023-01-17T06:31:23.237Z,19.90
2023-01-17T06:33:51.511Z,17.63
2023-01-17T06:36:24.349Z,25.23
2023-01-17T06:38:52.656Z,24.63
2023-01-17T06:41:21.042Z,22.63
2023-01-17T06:43:50.657Z,21.10
2023-01-17T06:46:18.870Z,18.87
2023-01-17T06:48:50.357Z,18.20
2023-01-17T06:51:19.030Z,25.30
2023-01-17T06:53:48.570Z,18.47
2023-01-17T06:56:16.879Z,20.23
2023-01-17T06:58:46.247Z,20.20
2023-01-17T07:01:15.888Z,18.53
2023-01-17T07:03:44.352Z,19.30
2023-01-17T07:06:12.586Z,23.20
2023-01-17T07:08:40.963Z,26.00
2023-01-17T07:11:09.725Z,30.30
2023-01-17T07:13:39.343Z,27.13
2023-01-17T07:16:08.678Z,27.23
2023-01-17T07:18:38.627Z,25.53
2023-01-17T07:21:12.935Z,23.17
2023-01-17T07:23:41.569Z,21.83
2023-01-17T07:26:09.914Z,23.53
2023-01-17T07:28:38.281Z,28.83
2023-01-17T07:31:08.106Z,24.43
2023-01-17T07:33:37.735Z,29.63
2023-01-17T07:36:08.279Z,26.73
2023-01-17T07:38:36.874Z,33.70
2023-01-17T07:41:05.357Z,36.83
2023-01-17T07:43:36.443Z,30.43
2023-01-17T07:46:07.801Z,34.33
2023-01-17T07:48:37.568Z,34.33
2023-01-17T07:51:06.070Z,38.53
2023-01-17T07:53:34.424Z,34.53
2023-01-17T07:56:04.517Z,31.23
2023-01-17T07:58:33.069Z,33.90
2023-01-17T08:01:06.005Z,34.27
2023-01-17T08:03:55.269Z,33.47
2023-01-17T08:06:26.289Z,53.57
2023-01-17T08:08:57.065Z,59.40
2023-01-17T08:11:25.715Z,56.27
2023-01-17T08:13:57.673Z,47.27
2023-01-17T08:16:26.280Z,47.93
2023-01-17T08:18:56.378Z,39.00
2023-01-17T08:21:25.467Z,39.17
2023-01-17T08:23:54.125Z,42.80
2023-01-17T08:26:23.453Z,37.13
2023-01-17T08:28:57.025Z,40.30
2023-01-17T08:31:25.750Z,38.00
2023-01-17T08:33:55.470Z,39.90
2023-01-17T08:36:25.738Z,42.77
2023-01-17T08:38:55.000Z,35.83
2023-01-17T08:41:24.624Z,38.30
2023-01-17T08:43:53.568Z,38.23
2023-01-17T08:46:22.481Z,39.00
2023-01-17T08:48:58.781Z,43.50
2023-01-17T08:51:28.300Z,41.63
2023-01-17T08:53:57.601Z,35.70
2023-01-17T08:56:26.088Z,33.53
2023-01-17T08:58:54.718Z,38.73
2023-01-17T09:01:23.109Z,37.97
2023-01-17T09:03:52.524Z,39.27
2023-01-17T09:06:22.151Z,35.87
2023-01-17T09:08:54.849Z,37.37
2023-01-17T09:11:25.448Z,39.70
2023-01-17T09:13:53.892Z,38.90
2023-01-17T09:16:22.378Z,34.20
2023-01-17T09:18:54.309Z,33.73
2023-01-17T09:21:24.492Z,36.00
2023-01-17T09:23:53.159Z,34.33
2023-01-17T09:26:23.836Z,38.10
2023-01-17T09:28:52.589Z,32.37
2023-01-17T09:31:22.186Z,32.43
2023-01-17T09:33:51.517Z,33.33
2023-01-17T09:36:29.358Z,38.13
2023-01-17T09:38:58.727Z,31.57
2023-01-17T09:41:29.873Z,30.47
2023-01-17T09:44:06.772Z,23.97
2023-01-17T09:46:40.131Z,24.13
2023-01-17T09:49:10.085Z,23.50
2023-01-17T09:51:39.851Z,22.83
2023-01-17T09:54:20.348Z,25.53
2023-01-17T09:56:56.780Z,23.63
2023-01-17T09:59:35.855Z,20.70
2023-01-17T10:02:28.691Z,22.87
2023-01-17T10:05:20.281Z,55.90
2023-01-17T10:08:04.636Z,32.33
2023-01-17T10:10:41.492Z,16.77
2023-01-17T10:13:21.181Z,14.40
2023-01-17T10:16:00.162Z,15.40
2023-01-17T10:19:00.709Z,14.87
2023-01-17T10:21:43.490Z,14.73
2023-01-17T10:24:40.479Z,14.40
2023-01-17T10:27:19.557Z,16.83
2023-01-17T10:29:50.893Z,13.97
2023-01-17T10:32:23.176Z,17.33
2023-01-17T10:34:53.229Z,11.87
2023-01-17T10:37:27.302Z,18.07
2023-01-17T10:40:03.815Z,17.93
2023-01-17T10:42:39.604Z,15.70
2023-01-17T10:45:19.024Z,14.57
2023-01-17T10:47:54.887Z,12.33
2023-01-17T10:50:25.772Z,18.43
2023-01-17T10:53:01.423Z,16.33
2023-01-17T10:55:39.053Z,16.63
2023-01-17T10:58:11.960Z,12.63
2023-01-17T11:00:49.034Z,12.67
2023-01-17T11:03:28.727Z,18.10
2023-01-17T11:06:17.227Z,17.37
2023-01-17T11:08:57.192Z,24.77
2023-01-17T11:11:31.908Z,14.30
2023-01-17T11:14:02.485Z,14.50
2023-01-17T11:16:32.435Z,17.73
2023-01-17T11:19:10.204Z,16.93
2023-01-17T11:21:40.958Z,9.73
2023-01-17T11:24:18.964Z,8.03
2023-01-17T11:26:51.604Z,19.00
2023-01-17T11:29:35.823Z,14.60
2023-01-17T11:32:34.843Z,14.90
2023-01-17T11:35:21.304Z,8.40
2023-01-17T11:37:52.859Z,12.30
2023-01-17T11:40:28.774Z,11.83
2023-01-17T11:43:18.745Z,11.30
2023-01-17T11:45:48.142Z,10.20
2023-01-17T11:48:18.437Z,8.03
2023-01-17T11:50:54.969Z,13.30
2023-01-17T11:53:26.067Z,9.63
2023-01-17T11:56:01.035Z,10.67
2023-01-17T11:58:31.591Z,8.90
2023-01-17T12:01:27.260Z,11.83
2023-01-17T12:04:20.925Z,7.93
2023-01-17T12:07:10.592Z,7.10
2023-01-17T12:09:46.275Z,7.97
2023-01-17T12:12:40.398Z,6.83
2023-01-17T12:15:22.312Z,4.40
2023-01-17T12:18:06.069Z,6.83
2023-01-17T12:20:44.541Z,7.80
2023-01-17T12:23:30.413Z,7.93
2023-01-17T12:26:12.059Z,8.70
2023-01-17T12:29:08.128Z,5.23
2023-01-17T12:31:43.263Z,3.97
2023-01-17T12:34:24.079Z,11.30
2023-01-17T12:36:56.158Z,7.97
2023-01-17T12:39:30.138Z,4.77
2023-01-17T12:42:03.857Z,5.57
2023-01-17T12:44:42.735Z,3.47
2023-01-17T12:47:15.602Z,3.07
2023-01-17T12:49:50.903Z,3.53
2023-01-17T12:52:26.068Z,6.03
2023-01-17T12:54:58.883Z,6.07
2023-01-17T12:57:30.637Z,6.67
2023-01-17T13:00:04.126Z,2.60
2023-01-17T13:02:39.506Z,2.10
2023-01-17T13:05:15.443Z,3.50
2023-01-17T13:07:50.458Z,6.20
2023-01-17T13:10:27.806Z,6.73
2023-01-17T13:13:00.926Z,4.77
2023-01-17T13:15:37.712Z,6.20
2023-01-17T13:18:14.470Z,6.57
2023-01-17T13:21:09.891Z,6.87
2023-01-17T13:23:53.787Z,6.03
2023-01-17T13:26:33.579Z,5.27
2023-01-17T13:29:11.730Z,4.80
2023-01-17T13:31:48.420Z,4.77
2023-01-17T13:34:41.376Z,5.03
2023-01-17T13:37:46.548Z,3.67
2023-01-17T13:40:30.134Z,4.77
2023-01-17T13:43:01.210Z,6.00
2023-01-17T13:45:32.201Z,3.80
2023-01-17T13:48:30.123Z,4.60
2023-01-17T13:51:02.170Z,2.43
2023-01-17T13:53:55.188Z,2.53
2023-01-17T13:56:34.348Z,7.03
2023-01-17T13:59:21.737Z,4.80
2023-01-17T14:01:58.789Z,5.60
2023-01-17T14:05:06.165Z,3.40
2023-01-17T14:07:41.151Z,7.40
2023-01-17T14:10:31.868Z,6.33
2023-01-17T14:13:00.515Z,2.27
2023-01-17T14:15:30.795Z,7.97
2023-01-17T14:18:01.496Z,5.43
2023-01-17T14:20:38.288Z,4.73
2023-01-17T14:23:22.124Z,3.73
2023-01-17T14:25:52.818Z,6.27
2023-01-17T14:28:25.110Z,4.93
2023-01-17T14:30:56.082Z,6.40
2023-01-17T14:33:29.979Z,6.87
2023-01-17T14:36:02.003Z,4.20
2023-01-17T14:38:33.565Z,2.17
2023-01-17T14:41:04.579Z,4.83
2023-01-17T14:43:36.322Z,6.00
2023-01-17T14:46:08.161Z,5.43
2023-01-17T14:48:42.207Z,6.90
2023-01-17T14:51:14.640Z,9.57
2023-01-17T14:53:54.732Z,4.83
2023-01-17T14:56:23.670Z,6.43
2023-01-17T14:59:08.668Z,4.73
2023-01-17T15:01:37.188Z,11.47
2023-01-17T15:04:05.738Z,3.70
2023-01-17T15:06:39.365Z,9.20
2023-01-17T15:09:12.680Z,6.93
2023-01-17T15:11:41.901Z,9.97
2023-01-17T15:14:20.400Z,15.17
2023-01-17T15:16:52.077Z,10.33
2023-01-17T15:19:21.816Z,10.60
2023-01-17T15:21:52.982Z,10.83
2023-01-17T15:24:24.510Z,14.90
2023-01-17T15:26:53.101Z,7.90
2023-01-17T15:29:26.041Z,7.27
2023-01-17T15:31:56.120Z,6.90
2023-01-17T15:34:29.483Z,8.20
2023-01-17T15:37:00.101Z,5.10
2023-01-17T15:39:32.580Z,7.27
2023-01-17T15:42:03.617Z,8.83
2023-01-17T15:44:50.442Z,8.63
2023-01-17T15:47:29.155Z,9.20
2023-01-17T15:49:57.545Z,8.07
2023-01-17T15:52:25.825Z,8.80
2023-01-17T15:55:00.368Z,11.97
2023-01-17T15:57:30.781Z,12.70
2023-01-17T16:00:02.085Z,8.40
2023-01-17T16:02:42.735Z,10.77
2023-01-17T16:05:42.112Z,5.43
2023-01-17T16:08:31.963Z,7.50
2023-01-17T16:11:03.582Z,10.60
2023-01-17T16:13:33.315Z,8.90
2023-01-17T16:16:15.574Z,15.57
2023-01-17T16:18:44.348Z,7.40
2023-01-17T16:21:19.988Z,8.60
2023-01-17T16:23:48.822Z,8.77
2023-01-17T16:26:19.019Z,13.10
2023-01-17T16:28:47.741Z,15.67
2023-01-17T16:31:16.674Z,9.43
2023-01-17T16:33:46.064Z,13.70
2023-01-17T16:36:16.684Z,10.07
2023-01-17T16:38:46.068Z,7.23
2023-01-17T16:41:14.287Z,17.07
2023-01-17T16:43:44.304Z,55.87
2023-01-17T16:46:13.251Z,48.80
2023-01-17T16:48:41.619Z,30.43
2023-01-17T16:51:10.014Z,23.57
2023-01-17T16:53:38.490Z,22.37
2023-01-17T16:56:13.801Z,9.93
2023-01-17T16:58:43.844Z,11.03
2023-01-17T17:01:15.805Z,6.10
2023-01-17T17:03:45.198Z,7.83
2023-01-17T17:06:15.115Z,14.47
2023-01-17T17:08:44.212Z,12.43
2023-01-17T17:11:15.420Z,13.10
2023-01-17T17:13:46.707Z,14.27
2023-01-17T17:16:17.730Z,12.07
2023-01-17T17:18:47.913Z,12.20
2023-01-17T17:21:16.386Z,9.27
2023-01-17T17:23:44.773Z,11.07
2023-01-17T17:26:13.018Z,15.53
2023-01-17T17:28:41.434Z,17.43
2023-01-17T17:31:11.942Z,13.53
2023-01-17T17:33:40.322Z,14.47
2023-01-17T17:36:11.170Z,18.87
2023-01-17T17:38:50.750Z,29.23
2023-01-17T17:41:20.909Z,15.37
2023-01-17T17:43:49.395Z,25.07
2023-01-17T17:46:19.618Z,26.20
2023-01-17T17:48:48.437Z,24.27
2023-01-17T17:51:25.694Z,26.70
2023-01-17T17:53:55.351Z,30.70
2023-01-17T17:56:24.497Z,33.93
2023-01-17T17:58:52.917Z,46.60
2023-01-17T18:01:24.288Z,41.03
2023-01-17T18:03:52.852Z,46.20
2023-01-17T18:06:22.033Z,43.07
2023-01-17T18:08:52.104Z,38.87
2023-01-17T18:11:23.427Z,37.93
2023-01-17T18:13:53.287Z,45.00
2023-01-17T18:16:24.932Z,50.33
2023-01-17T18:18:56.732Z,45.27
2023-01-17T18:21:27.984Z,48.83
2023-01-17T18:23:58.858Z,38.20
2023-01-17T18:26:29.199Z,39.57
2023-01-17T18:29:00.979Z,41.67
2023-01-17T18:31:31.954Z,38.73
2023-01-17T18:34:01.824Z,49.63
2023-01-17T18:36:30.122Z,55.40
2023-01-17T18:38:58.827Z,72.80
2023-01-17T18:41:28.644Z,68.57
2023-01-17T18:43:57.126Z,62.40
2023-01-17T18:46:26.931Z,64.67
2023-01-17T18:48:58.240Z,55.60
2023-01-17T18:51:27.752Z,63.47
2023-01-17T18:53:56.029Z,60.97
2023-01-17T18:56:24.511Z,82.17
2023-01-17T18:58:53.100Z,75.27
2023-01-17T19:01:23.887Z,109.00
2023-01-17T19:03:54.944Z,201.70
2023-01-17T19:06:27.091Z,108.47
2023-01-17T19:08:57.591Z,75.27
2023-01-17T19:11:27.547Z,74.03
2023-01-17T19:13:56.504Z,74.73
2023-01-17T19:16:28.196Z,68.47
2023-01-17T19:18:57.448Z,74.00
2023-01-17T19:21:28.647Z,86.33
2023-01-17T19:23:58.274Z,73.60
2023-01-17T19:26:27.782Z,81.43
2023-01-17T19:28:58.935Z,76.70
2023-01-17T19:31:29.669Z,62.97
2023-01-17T19:33:59.785Z,53.53
2023-01-17T19:36:33.619Z,58.67
2023-01-17T19:39:05.630Z,78.07
2023-01-17T19:41:36.797Z,90.17
2023-01-17T19:44:06.820Z,74.67
2023-01-17T19:46:35.808Z,63.43
2023-01-17T19:49:05.550Z,54.10
2023-01-17T19:51:35.865Z,49.47
2023-01-17T19:54:06.602Z,48.37
2023-01-17T19:56:35.194Z,53.77
2023-01-17T19:59:03.633Z,55.10
2023-01-17T20:01:33.491Z,45.37
2023-01-17T20:04:02.949Z,47.43
2023-01-17T20:06:35.347Z,45.43
2023-01-17T20:09:04.854Z,45.83
2023-01-17T20:11:33.468Z,44.60
2023-01-17T20:14:02.077Z,47.00
2023-01-17T20:16:32.731Z,49.70
2023-01-17T20:19:03.172Z,52.73
2023-01-17T20:21:32.909Z,103.47
2023-01-17T20:24:04.458Z,105.20
2023-01-17T20:26:35.994Z,71.20
2023-01-17T20:29:10.844Z,66.13
2023-01-17T20:31:40.392Z,54.37
2023-01-17T20:34:13.943Z,54.42
2023-01-17T20:36:42.848Z,44.53
2023-01-17T20:39:14.876Z,48.23
2023-01-17T20:41:45.562Z,105.53
2023-01-17T20:44:15.920Z,98.97
2023-01-17T20:46:44.553Z,91.70
2023-01-17T20:49:16.234Z,55.00
2023-01-17T20:51:45.258Z,61.80
2023-01-17T20:54:16.939Z,73.73
2023-01-17T20:56:47.654Z,64.50
2023-01-17T20:59:17.874Z,55.33
2023-01-17T21:01:46.769Z,46.60
2023-01-17T21:04:15.242Z,58.10
2023-01-17T21:06:44.926Z,60.97
2023-01-17T21:09:17.374Z,67.33
2023-01-17T21:11:45.681Z,72.50
2023-01-17T21:14:16.203Z,74.30
2023-01-17T21:16:44.744Z,62.50
2023-01-17T21:19:15.985Z,61.47
2023-01-17T21:21:44.310Z,66.10
2023-01-17T21:24:18.649Z,59.80
2023-01-17T21:26:47.645Z,61.23
2023-01-17T21:29:16.496Z,67.53
2023-01-17T21:31:45.324Z,55.63
2023-01-17T21:34:14.624Z,60.30
2023-01-17T21:36:45.087Z,50.40
2023-01-17T21:39:17.405Z,53.63
2023-01-17T21:41:48.000Z,48.73
2023-01-17T21:44:20.135Z,53.33
2023-01-17T21:46:49.164Z,56.50
2023-01-17T21:49:17.493Z,57.50
2023-01-17T21:52:00.119Z,48.87
2023-01-17T21:54:48.133Z,60.27
2023-01-17T21:57:35.824Z,63.03
2023-01-17T22:00:04.833Z,56.30
2023-01-17T22:02:33.352Z,64.97
2023-01-17T22:05:01.619Z,61.20
2023-01-17T22:07:30.215Z,54.83
2023-01-17T22:09:59.883Z,57.73
2023-01-17T22:12:30.720Z,52.70
2023-01-17T22:14:59.459Z,49.33
2023-01-17T22:17:29.684Z,50.43
2023-01-17T22:19:58.090Z,49.63
2023-01-17T22:22:47.001Z,50.20
2023-01-17T22:25:19.244Z,42.23
2023-01-17T22:27:47.621Z,43.17
2023-01-17T22:30:16.513Z,44.27
2023-01-17T22:32:44.900Z,45.60
2023-01-17T22:35:13.796Z,45.13
2023-01-17T22:37:44.212Z,49.53
2023-01-17T22:40:13.806Z,46.70
2023-01-17T22:42:44.089Z,38.07
2023-01-17T22:45:12.807Z,44.67
2023-01-17T22:47:43.730Z,46.80
2023-01-17T22:50:13.119Z,44.50
2023-01-17T22:52:41.990Z,48.10
2023-01-17T22:55:12.279Z,49.27
2023-01-17T22:57:40.502Z,45.10
2023-01-17T23:00:14.883Z,43.97
2023-01-17T23:02:44.047Z,50.77
2023-01-17T23:05:12.536Z,43.00
2023-01-17T23:07:44.405Z,47.07
2023-01-17T23:10:34.730Z,47.30
2023-01-17T23:13:03.300Z,44.97
2023-01-17T23:15:50.280Z,45.23
2023-01-17T23:18:35.893Z,43.17
2023-01-17T23:21:04.331Z,49.43
2023-01-17T23:23:33.304Z,49.37
2023-01-17T23:26:02.398Z,59.27
2023-01-17T23:28:29.867Z,52.77
2023-01-17T23:31:05.144Z,52.80
2023-01-17T23:33:33.744Z,57.83
2023-01-17T23:36:01.975Z,52.20
2023-01-17T23:38:30.575Z,46.33
2023-01-17T23:41:20.303Z,44.23
2023-01-17T23:43:52.957Z,47.60
2023-01-17T23:46:23.992Z,50.03
2023-01-17T23:48:52.824Z,49.37
2023-01-17T23:51:21.291Z,48.00
2023-01-17T23:53:51.023Z,48.22
2023-01-17T23:56:21.450Z,42.77
2023-01-17T23:58:50.523Z,42.67
